Time;durP1;ratioP1;P1;durP2;ratioP2;P2;SDS_P1;SDS_P2;PMS_P1;PMS_P2;Temp;Humidity;BMP_temperature;BMP_pressure;BME280_temperature;BME280_humidity;BME280_pressure;Samples;Min_cycle;Max_cycle;Signal;HPM_P1;HPM_P2
2022/02/14 00:00:18;;;;;;;;;;;22.40;36.10;;;;;;683674;28;883;-83
2022/02/14 00:00:39;;;;;;;;;;;22.50;36.20;;;;;;686013;28;839;-89
2022/02/14 00:01:00;;;;;;;;;;;22.50;36.20;;;;;;686171;28;851;-84
2022/02/14 00:01:20;;;;;;;;;;;22.40;36.30;;;;;;686107;28;810;-83
2022/02/14 00:01:41;;;;;;;;;;;22.40;37.30;;;;;;686339;28;839;-83
2022/02/14 00:02:02;;;;;;;;;;;22.40;36.30;;;;;;686283;28;796;-87
2022/02/14 00:02:23;;;;;;;;;;;22.40;36.20;;;;;;687065;28;803;-86
2022/02/14 00:02:43;;;;;;;;;;;22.40;36.30;;;;;;686878;28;859;-86
2022/02/14 00:03:04;;;;;;;;;;;22.40;36.20;;;;;;687026;28;803;-84
2022/02/14 00:03:25;;;;;;;;;;;22.40;36.20;;;;;;687244;28;1490;-81
2022/02/14 00:03:45;;;;;;;;;;;22.40;36.20;;;;;;691304;28;1446;-89
2022/02/14 00:04:06;;;;;;;;;;;22.40;36.20;;;;;;690527;28;1879;-85
2022/02/14 00:04:51;;;;;;;;;;;22.40;36.30;;;;;;698658;28;1352;-85
2022/02/14 00:05:12;;;;;;;;;;;22.40;36.30;;;;;;697374;28;1254;-86
2022/02/14 00:05:32;;;;;;;;;;;22.40;36.30;;;;;;697521;28;1363;-89
2022/02/14 00:05:53;;;;;;;;;;;22.40;36.30;;;;;;699028;28;1425;-86
2022/02/14 00:06:14;;;;;;;;;;;22.40;36.40;;;;;;697295;28;1206;-83
2022/02/14 00:06:34;;;;;;;;;;;22.40;36.70;;;;;;694401;28;1252;-87
2022/02/14 00:06:55;;;;;;;;;;;21.80;35.90;;;;;;692302;28;1329;-88
2022/02/14 00:07:15;;;;;;;;;;;22.40;36.30;;;;;;694947;28;795;-89
2022/02/14 00:07:36;;;;;;;;;;;22.40;36.30;;;;;;695144;28;818;-87
2022/02/14 00:07:57;;;;;;;;;;;22.40;36.30;;;;;;695238;28;1320;-89
2022/02/14 00:08:17;;;;;;;;;;;22.40;36.60;;;;;;695112;28;1369;-88
2022/02/14 00:08:38;;;;;;;;;;;22.40;36.30;;;;;;698112;28;822;-87
2022/02/14 00:08:58;;;;;;;;;;;22.40;36.30;;;;;;700344;28;771;-83
2022/02/14 00:09:19;;;;;;;;;;;22.40;36.40;;;;;;697826;28;1446;-88
2022/02/14 00:09:40;;;;;;;;;;;22.40;36.50;;;;;;696400;28;1259;-85
2022/02/14 00:10:00;;;;;;;;;;;22.40;36.40;;;;;;695553;28;842;-91
2022/02/14 00:10:21;;;;;;;;;;;22.40;36.30;;;;;;695026;28;1049;-83
2022/02/14 00:10:41;;;;;;;;;;;22.40;36.30;;;;;;695045;28;838;-84
2022/02/14 00:11:02;;;;;;;;;;;22.40;36.40;;;;;;695249;28;858;-87
2022/02/14 00:11:24;;;;;;;;;;;22.40;36.30;;;;;;697664;28;886;-89
2022/02/14 00:11:45;;;;;;;;;;;22.40;36.40;;;;;;698584;28;826;-92
2022/02/14 00:12:06;;;;;;;;;;;22.40;36.40;;;;;;700921;28;1435;-84
2022/02/14 00:12:27;;;;;;;;;;;22.40;36.40;;;;;;700861;28;826;-84
2022/02/14 00:12:47;;;;;;;;;;;22.40;36.40;;;;;;701509;28;815;-82
2022/02/14 00:13:08;;;;;;;;;;;22.40;36.50;;;;;;700613;28;845;-80
2022/02/14 00:13:30;;;;;;;;;;;22.40;36.40;;;;;;697940;28;1588;-83
2022/02/14 00:13:51;;;;;;;;;;;22.40;36.40;;;;;;697896;28;886;-82
2022/02/14 00:14:11;;;;;;;;;;;22.30;36.50;;;;;;698468;28;1371;-89
2022/02/14 00:14:32;;;;;;;;;;;22.40;36.50;;;;;;698001;28;798;-89
2022/02/14 00:14:52;;;;;;;;;;;22.40;36.40;;;;;;697733;28;846;-88
2022/02/14 00:15:13;;;;;;;;;;;22.40;36.40;;;;;;698569;28;875;-84
2022/02/14 00:15:34;;;;;;;;;;;22.40;36.50;;;;;;700749;28;846;-88
2022/02/14 00:15:55;;;;;;;;;;;22.30;36.40;;;;;;697685;28;1668;-81
2022/02/14 00:16:15;;;;;;;;;;;22.40;36.40;;;;;;697741;28;862;-88
2022/02/14 00:16:36;;;;;;;;;;;22.40;36.50;;;;;;697943;28;827;-85
2022/02/14 00:16:57;;;;;;;;;;;22.40;36.60;;;;;;698048;28;869;-88
2022/02/14 00:17:17;;;;;;;;;;;22.30;36.50;;;;;;698008;28;807;-85
2022/02/14 00:17:38;;;;;;;;;;;22.40;36.60;;;;;;698186;28;918;-86
2022/02/14 00:17:59;;;;;;;;;;;22.40;36.60;;;;;;697205;28;1361;-79
2022/02/14 00:18:19;;;;;;;;;;;22.40;36.60;;;;;;697649;28;795;-81
2022/02/14 00:18:40;;;;;;;;;;;22.30;36.50;;;;;;697705;28;764;-83
2022/02/14 00:19:00;;;;;;;;;;;22.30;36.50;;;;;;697736;28;1361;-79
2022/02/14 00:19:22;;;;;;;;;;;22.30;36.50;;;;;;698054;28;941;-82
2022/02/14 00:19:50;;;;;;;;;;;22.30;36.50;;;;;;699395;28;909;-76
2022/02/14 00:20:11;;;;;;;;;;;22.30;36.50;;;;;;701041;28;798;-85
2022/02/14 00:20:32;;;;;;;;;;;22.30;36.50;;;;;;701060;28;850;-85
2022/02/14 00:20:52;;;;;;;;;;;22.30;36.50;;;;;;700922;28;861;-93
2022/02/14 00:21:13;;;;;;;;;;;22.30;36.50;;;;;;701389;28;894;-81
2022/02/14 00:21:33;;;;;;;;;;;22.30;36.50;;;;;;701341;28;969;-88
2022/02/14 00:21:54;;;;;;;;;;;22.30;36.60;;;;;;703137;28;1291;-75
2022/02/14 00:22:14;;;;;;;;;;;22.30;36.50;;;;;;703863;28;933;-78
2022/02/14 00:22:35;;;;;;;;;;;22.30;36.50;;;;;;703606;28;1473;-88
2022/02/14 00:22:56;;;;;;;;;;;22.30;36.60;;;;;;703338;28;931;-88
2022/02/14 00:23:16;;;;;;;;;;;22.30;36.60;;;;;;703283;28;838;-90
2022/02/14 00:23:37;;;;;;;;;;;22.30;36.50;;;;;;702747;28;960;-88
2022/02/14 00:23:57;;;;;;;;;;;22.30;36.50;;;;;;699440;28;975;-89
2022/02/14 00:24:18;;;;;;;;;;;22.30;36.60;;;;;;699649;28;1983;-91
2022/02/14 00:24:39;;;;;;;;;;;22.30;36.60;;;;;;696668;28;1300;-83
2022/02/14 00:25:00;;;;;;;;;;;22.30;36.60;;;;;;696729;28;1338;-83
2022/02/14 00:25:23;;;;;;;;;;;22.30;36.60;;;;;;696712;28;858;-83
2022/02/14 00:25:43;;;;;;;;;;;22.30;36.60;;;;;;697296;28;1442;-85
2022/02/14 00:26:04;;;;;;;;;;;22.30;36.60;;;;;;699450;28;810;-86
2022/02/14 00:26:25;;;;;;;;;;;22.30;36.70;;;;;;696610;28;1403;-84
2022/02/14 00:26:45;;;;;;;;;;;22.30;36.60;;;;;;697243;28;858;-87
2022/02/14 00:27:06;;;;;;;;;;;22.30;36.60;;;;;;694398;28;1297;-91
2022/02/14 00:27:26;;;;;;;;;;;22.30;36.60;;;;;;694222;28;1320;-82
2022/02/14 00:27:47;;;;;;;;;;;22.30;36.60;;;;;;697263;28;941;-89
2022/02/14 00:28:08;;;;;;;;;;;22.30;36.70;;;;;;694155;28;1204;-81
2022/02/14 00:28:29;;;;;;;;;;;22.30;36.60;;;;;;693795;28;1321;-89
2022/02/14 00:28:49;;;;;;;;;;;22.30;36.60;;;;;;695286;28;770;-79
2022/02/14 00:29:10;;;;;;;;;;;22.30;36.70;;;;;;692047;28;1208;-76
2022/02/14 00:29:30;;;;;;;;;;;22.30;36.70;;;;;;692436;28;1212;-91
2022/02/14 00:29:51;;;;;;;;;;;22.30;36.60;;;;;;693275;28;1347;-87
2022/02/14 00:30:12;;;;;;;;;;;22.30;36.80;;;;;;692043;28;1451;-92
2022/02/14 00:30:32;;;;;;;;;;;22.30;36.80;;;;;;691981;28;1212;-76
2022/02/14 00:30:53;;;;;;;;;;;22.30;36.80;;;;;;692550;28;889;-75
2022/02/14 00:31:13;;;;;;;;;;;22.30;36.70;;;;;;692896;28;1202;-78
2022/02/14 00:31:34;;;;;;;;;;;22.30;36.70;;;;;;691797;28;1455;-91
2022/02/14 00:31:54;;;;;;;;;;;22.30;36.80;;;;;;691401;28;1413;-86
2022/02/14 00:32:15;;;;;;;;;;;22.30;36.70;;;;;;695003;28;1341;-87
2022/02/14 00:32:36;;;;;;;;;;;22.30;36.70;;;;;;696070;28;1234;-84
2022/02/14 00:32:57;;;;;;;;;;;22.30;36.70;;;;;;696596;28;1265;-88
2022/02/14 00:33:17;;;;;;;;;;;22.30;36.80;;;;;;699454;28;1411;-82
2022/02/14 00:33:38;;;;;;;;;;;22.30;36.70;;;;;;693976;28;1354;-87
2022/02/14 00:33:59;;;;;;;;;;;22.30;36.80;;;;;;693946;28;875;-85
2022/02/14 00:34:19;;;;;;;;;;;22.30;36.80;;;;;;691745;28;1384;-84
2022/02/14 00:34:40;;;;;;;;;;;22.30;36.80;;;;;;691523;28;1295;-83
2022/02/14 00:35:00;;;;;;;;;;;22.30;36.60;;;;;;691074;28;1200;-83
2022/02/14 00:35:21;;;;;;;;;;;22.30;36.80;;;;;;691264;28;1338;-82
2022/02/14 00:35:42;;;;;;;;;;;22.30;36.70;;;;;;693948;28;1258;-85
2022/02/14 00:36:03;;;;;;;;;;;22.30;36.60;;;;;;693886;28;842;-85
2022/02/14 00:36:23;;;;;;;;;;;22.30;36.80;;;;;;693885;28;1358;-80
2022/02/14 00:36:44;;;;;;;;;;;22.30;36.70;;;;;;694038;28;826;-82
2022/02/14 00:37:05;;;;;;;;;;;22.30;36.80;;;;;;698509;28;1273;-88
2022/02/14 00:37:25;;;;;;;;;;;22.30;36.80;;;;;;701287;28;1186;-91
2022/02/14 00:37:48;;;;;;;;;;;22.30;36.80;;;;;;700323;28;917;-90
2022/02/14 00:38:10;;;;;;;;;;;22.30;36.80;;;;;;696628;28;1223;-86
2022/02/14 00:38:30;;;;;;;;;;;22.30;36.70;;;;;;697117;28;830;-91
2022/02/14 00:38:51;;;;;;;;;;;22.30;36.80;;;;;;697312;28;771;-85
2022/02/14 00:39:12;;;;;;;;;;;22.30;36.80;;;;;;697023;28;901;-88
2022/02/14 00:39:34;;;;;;;;;;;22.30;36.80;;;;;;698693;28;1202;-92
2022/02/14 00:39:54;;;;;;;;;;;22.30;36.80;;;;;;699603;28;817;-88
2022/02/14 00:40:15;;;;;;;;;;;22.30;36.70;;;;;;699198;28;1241;-84
2022/02/14 00:40:36;;;;;;;;;;;22.30;36.70;;;;;;698382;28;1359;-84
2022/02/14 00:40:56;;;;;;;;;;;22.30;36.70;;;;;;694226;28;1240;-95
2022/02/14 00:41:17;;;;;;;;;;;22.30;36.70;;;;;;694294;28;893;-89
2022/02/14 00:41:37;;;;;;;;;;;22.30;36.70;;;;;;694133;28;902;-88
2022/02/14 00:41:58;;;;;;;;;;;22.30;36.70;;;;;;694674;28;826;-88
2022/02/14 00:42:18;;;;;;;;;;;22.30;36.80;;;;;;696710;28;1419;-89
2022/02/14 00:42:39;;;;;;;;;;;22.30;36.70;;;;;;696988;28;916;-89
2022/02/14 00:42:59;;;;;;;;;;;22.30;36.70;;;;;;699649;28;1377;-81
2022/02/14 00:43:20;;;;;;;;;;;22.30;36.80;;;;;;700183;28;874;-84
2022/02/14 00:43:41;;;;;;;;;;;22.30;36.70;;;;;;699809;28;874;-94
2022/02/14 00:44:02;;;;;;;;;;;22.30;36.80;;;;;;696575;28;1309;-90
2022/02/14 00:44:22;;;;;;;;;;;22.30;36.70;;;;;;696795;28;1961;-92
2022/02/14 00:44:43;;;;;;;;;;;22.30;36.70;;;;;;696792;28;1297;-85
2022/02/14 00:45:04;;;;;;;;;;;22.30;36.80;;;;;;696554;28;940;-84
2022/02/14 00:45:24;;;;;;;;;;;22.30;36.80;;;;;;698069;28;1261;-76
2022/02/14 00:45:45;;;;;;;;;;;22.30;36.70;;;;;;696532;28;1242;-84
2022/02/14 00:46:05;;;;;;;;;;;22.30;36.80;;;;;;694001;28;834;-88
2022/02/14 00:46:26;;;;;;;;;;;22.30;36.80;;;;;;694141;28;1330;-86
2022/02/14 00:46:47;;;;;;;;;;;22.30;36.80;;;;;;697344;28;1210;-78
2022/02/14 00:47:07;;;;;;;;;;;22.20;36.70;;;;;;699300;28;1130;-83
2022/02/14 00:47:28;;;;;;;;;;;22.30;36.80;;;;;;699486;28;877;-86
2022/02/14 00:47:48;;;;;;;;;;;22.20;36.80;;;;;;699926;28;1169;-90
2022/02/14 00:48:11;;;;;;;;;;;22.20;36.70;;;;;;699745;28;878;-76
2022/02/14 00:48:32;;;;;;;;;;;22.20;36.70;;;;;;699791;28;1411;-81
2022/02/14 00:48:52;;;;;;;;;;;22.30;36.80;;;;;;699705;28;838;-79
2022/02/14 00:49:13;;;;;;;;;;;22.20;36.70;;;;;;699805;28;795;-80
2022/02/14 00:49:34;;;;;;;;;;;22.20;36.80;;;;;;699647;28;1257;-85
2022/02/14 00:49:57;;;;;;;;;;;22.30;36.80;;;;;;699630;28;810;-86
2022/02/14 00:50:17;;;;;;;;;;;22.20;36.80;;;;;;699711;28;858;-77
2022/02/14 00:50:38;;;;;;;;;;;22.30;36.80;;;;;;699675;28;865;-80
2022/02/14 00:50:58;;;;;;;;;;;22.30;36.80;;;;;;696459;28;1138;-82
2022/02/14 00:51:19;;;;;;;;;;;22.30;36.80;;;;;;696723;28;775;-78
2022/02/14 00:51:39;;;;;;;;;;;22.30;36.80;;;;;;696677;28;810;-78
2022/02/14 00:52:00;;;;;;;;;;;22.20;36.80;;;;;;694011;28;854;-83
2022/02/14 00:52:21;;;;;;;;;;;22.20;36.70;;;;;;691101;28;1696;-80
2022/02/14 00:52:41;;;;;;;;;;;22.20;36.70;;;;;;690339;28;1616;-86
2022/02/14 00:53:04;;;;;;;;;;;22.20;36.70;;;;;;691271;28;1196;-90
2022/02/14 00:53:25;;;;;;;;;;;22.20;36.70;;;;;;692079;28;846;-83
2022/02/14 00:53:45;;;;;;;;;;;22.20;36.70;;;;;;692366;28;787;-85
2022/02/14 00:54:06;;;;;;;;;;;22.20;36.80;;;;;;691183;28;839;-89
2022/02/14 00:54:26;;;;;;;;;;;22.20;36.70;;;;;;692315;28;870;-87
2022/02/14 00:54:47;;;;;;;;;;;22.20;36.70;;;;;;692974;28;888;-89
2022/02/14 00:55:09;;;;;;;;;;;22.20;36.70;;;;;;695243;28;1624;-78
2022/02/14 00:55:29;;;;;;;;;;;22.20;36.70;;;;;;696774;28;1727;-83
2022/02/14 00:55:50;;;;;;;;;;;22.20;36.70;;;;;;697067;28;1667;-83
2022/02/14 00:56:11;;;;;;;;;;;22.20;36.80;;;;;;696049;28;926;-82
2022/02/14 00:56:32;;;;;;;;;;;22.20;36.70;;;;;;696835;28;853;-81
2022/02/14 00:56:52;;;;;;;;;;;22.30;36.80;;;;;;694105;28;1218;-85
2022/02/14 00:57:13;;;;;;;;;;;22.30;36.80;;;;;;695991;28;1191;-79
2022/02/14 00:57:33;;;;;;;;;;;22.20;36.70;;;;;;696305;28;1040;-77
2022/02/14 00:57:54;;;;;;;;;;;22.20;36.70;;;;;;696260;28;873;-82
2022/02/14 00:58:14;;;;;;;;;;;22.20;36.80;;;;;;695832;28;1198;-82
2022/02/14 00:58:35;;;;;;;;;;;22.30;36.90;;;;;;696147;28;994;-84
2022/02/14 00:58:55;;;;;;;;;;;22.30;37.00;;;;;;698706;28;1051;-80
2022/02/14 00:59:16;;;;;;;;;;;22.30;37.00;;;;;;698481;28;822;-82
2022/02/14 00:59:37;;;;;;;;;;;22.30;37.00;;;;;;698267;28;996;-83
2022/02/14 00:59:57;;;;;;;;;;;22.30;37.00;;;;;;698929;28;1347;-86
2022/02/14 01:00:18;;;;;;;;;;;22.30;36.90;;;;;;701409;28;981;-82
2022/02/14 01:00:39;;;;;;;;;;;22.30;36.90;;;;;;701069;28;815;-77
2022/02/14 01:01:00;;;;;;;;;;;22.30;36.90;;;;;;701128;28;810;-83
2022/02/14 01:01:20;;;;;;;;;;;22.30;36.90;;;;;;703784;28;1444;-82
2022/02/14 01:01:41;;;;;;;;;;;22.30;36.90;;;;;;704138;28;909;-83
2022/02/14 01:02:02;;;;;;;;;;;22.30;36.80;;;;;;703920;28;1443;-83
2022/02/14 01:02:22;;;;;;;;;;;22.40;36.80;;;;;;704239;28;790;-91
2022/02/14 01:02:44;;;;;;;;;;;22.40;36.80;;;;;;704200;28;790;-84
2022/02/14 01:03:04;;;;;;;;;;;22.40;36.80;;;;;;704035;28;996;-83
2022/02/14 01:03:25;;;;;;;;;;;22.40;36.70;;;;;;703878;28;802;-79
2022/02/14 01:03:46;;;;;;;;;;;22.40;36.80;;;;;;704012;28;1151;-82
2022/02/14 01:04:06;;;;;;;;;;;22.40;36.70;;;;;;703888;28;1081;-83
2022/02/14 01:04:27;;;;;;;;;;;22.40;36.70;;;;;;703996;28;1044;-80
2022/02/14 01:04:47;;;;;;;;;;;22.40;36.70;;;;;;703811;28;1439;-82
2022/02/14 01:05:09;;;;;;;;;;;22.40;36.70;;;;;;704037;28;1072;-79
2022/02/14 01:05:29;;;;;;;;;;;22.40;36.60;;;;;;703626;28;921;-81
2022/02/14 01:05:50;;;;;;;;;;;22.40;36.60;;;;;;703605;28;889;-79
2022/02/14 01:06:10;;;;;;;;;;;22.40;36.60;;;;;;703787;28;1055;-84
2022/02/14 01:06:31;;;;;;;;;;;22.40;36.60;;;;;;703073;28;1031;-89
2022/02/14 01:06:52;;;;;;;;;;;22.40;36.60;;;;;;702465;28;889;-88
2022/02/14 01:07:12;;;;;;;;;;;22.40;36.60;;;;;;702317;28;861;-85
2022/02/14 01:07:33;;;;;;;;;;;22.40;36.50;;;;;;702338;28;787;-89
2022/02/14 01:07:53;;;;;;;;;;;22.50;36.50;;;;;;702262;28;1405;-89
2022/02/14 01:08:14;;;;;;;;;;;22.40;36.50;;;;;;702465;28;771;-87
2022/02/14 01:08:35;;;;;;;;;;;22.40;36.50;;;;;;702261;28;1278;-88
2022/02/14 01:08:55;;;;;;;;;;;22.50;36.50;;;;;;702308;28;928;-88
2022/02/14 01:09:16;;;;;;;;;;;22.50;36.50;;;;;;702467;28;822;-86
2022/02/14 01:09:37;;;;;;;;;;;22.50;36.50;;;;;;699346;28;900;-89
2022/02/14 01:09:59;;;;;;;;;;;22.50;36.50;;;;;;699339;28;886;-91
2022/02/14 01:10:20;;;;;;;;;;;22.50;36.50;;;;;;699385;28;814;-84
2022/02/14 01:10:40;;;;;;;;;;;22.50;36.40;;;;;;699568;28;786;-82
2022/02/14 01:11:01;;;;;;;;;;;22.50;36.40;;;;;;699400;28;795;-87
2022/02/14 01:11:22;;;;;;;;;;;22.50;36.50;;;;;;699300;28;1280;-88
2022/02/14 01:11:42;;;;;;;;;;;22.50;36.40;;;;;;699492;28;842;-87
2022/02/14 01:12:03;;;;;;;;;;;22.50;36.40;;;;;;699469;28;783;-80
2022/02/14 01:12:25;;;;;;;;;;;22.50;36.40;;;;;;699281;28;916;-89
2022/02/14 01:12:46;;;;;;;;;;;22.50;36.40;;;;;;693833;28;1133;-85
2022/02/14 01:13:06;;;;;;;;;;;22.50;36.40;;;;;;694379;28;882;-85
2022/02/14 01:13:27;;;;;;;;;;;22.50;36.30;;;;;;693513;28;1396;-88
2022/02/14 01:13:48;;;;;;;;;;;22.50;36.30;;;;;;693951;28;822;-89
2022/02/14 01:14:08;;;;;;;;;;;22.50;36.40;;;;;;693807;28;1394;-86
2022/02/14 01:14:29;;;;;;;;;;;22.50;36.40;;;;;;693889;28;786;-87
2022/02/14 01:14:49;;;;;;;;;;;22.00;36.10;;;;;;694042;28;894;-82
2022/02/14 01:15:10;;;;;;;;;;;22.50;36.40;;;;;;694204;28;838;-88
2022/02/14 01:15:31;;;;;;;;;;;22.50;36.40;;;;;;693747;28;1184;-86
2022/02/14 01:15:51;;;;;;;;;;;22.50;36.30;;;;;;690942;28;1186;-87
2022/02/14 01:16:12;;;;;;;;;;;22.50;36.30;;;;;;691231;28;1212;-79
2022/02/14 01:16:33;;;;;;;;;;;22.50;36.40;;;;;;691111;28;772;-89
2022/02/14 01:16:57;;;;;;;;;;;22.50;36.30;;;;;;691049;28;1246;-85
2022/02/14 01:17:18;;;;;;;;;;;22.50;36.40;;;;;;691897;28;1392;-84
2022/02/14 01:17:38;;;;;;;;;;;22.50;36.40;;;;;;691936;28;1209;-90
2022/02/14 01:18:00;;;;;;;;;;;22.50;36.40;;;;;;693960;28;771;-86
2022/02/14 01:18:21;;;;;;;;;;;22.50;36.80;;;;;;693677;28;1228;-89
2022/02/14 01:18:41;;;;;;;;;;;22.50;36.30;;;;;;693967;28;934;-91
2022/02/14 01:19:02;;;;;;;;;;;22.50;36.30;;;;;;694463;28;819;-91
2022/02/14 01:19:23;;;;;;;;;;;22.50;36.30;;;;;;696952;28;1355;-93
2022/02/14 01:19:44;;;;;;;;;;;22.50;36.20;;;;;;696271;28;1352;-90
2022/02/14 01:20:05;;;;;;;;;;;22.50;36.30;;;;;;693916;28;1279;-92
2022/02/14 01:20:26;;;;;;;;;;;22.50;36.20;;;;;;693848;28;854;-87
2022/02/14 01:20:46;;;;;;;;;;;22.50;36.20;;;;;;693676;28;1223;-89
2022/02/14 01:21:07;;;;;;;;;;;22.50;36.20;;;;;;694218;28;1234;-88
2022/02/14 01:21:27;;;;;;;;;;;22.50;36.10;;;;;;696923;28;1284;-85
2022/02/14 01:21:48;;;;;;;;;;;22.50;36.20;;;;;;700253;28;949;-95
2022/02/14 01:22:08;;;;;;;;;;;22.60;36.20;;;;;;700226;28;833;-93
2022/02/14 01:22:29;;;;;;;;;;;22.50;36.10;;;;;;700386;28;933;-96
2022/02/14 01:22:49;;;;;;;;;;;22.50;36.20;;;;;;700594;28;921;-85
2022/02/14 01:23:11;;;;;;;;;;;22.50;36.20;;;;;;700104;28;1354;-90
2022/02/14 01:23:31;;;;;;;;;;;22.50;36.10;;;;;;699840;28;1251;-96
2022/02/14 01:23:52;;;;;;;;;;;22.50;36.10;;;;;;699900;28;861;-89
2022/02/14 01:24:12;;;;;;;;;;;22.50;36.10;;;;;;697283;28;1953;-96
2022/02/14 01:24:34;;;;;;;;;;;22.50;36.10;;;;;;697134;28;929;-90
2022/02/14 01:24:55;;;;;;;;;;;22.50;36.30;;;;;;693422;28;894;-91
2022/02/14 01:25:15;;;;;;;;;;;22.50;36.30;;;;;;691599;28;1310;-92
2022/02/14 01:25:36;;;;;;;;;;;22.50;36.30;;;;;;694022;28;858;-87
2022/02/14 01:25:56;;;;;;;;;;;22.50;36.30;;;;;;692447;28;1246;-93
2022/02/14 01:26:17;;;;;;;;;;;22.50;36.30;;;;;;696520;28;1262;-87
2022/02/14 01:26:40;;;;;;;;;;;22.40;36.30;;;;;;694957;28;1137;-92
2022/02/14 01:27:04;;;;;;;;;;;22.50;36.40;;;;;;697064;28;822;-93
2022/02/14 01:27:24;;;;;;;;;;;22.40;36.30;;;;;;697195;28;1337;-94
2022/02/14 01:27:45;;;;;;;;;;;22.50;36.30;;;;;;697571;28;874;-93
2022/02/14 01:28:05;;;;;;;;;;;22.40;36.30;;;;;;696909;28;775;-85
2022/02/14 01:28:26;;;;;;;;;;;22.40;37.40;;;;;;696925;28;866;-92
2022/02/14 01:28:46;;;;;;;;;;;22.40;36.30;;;;;;696959;28;799;-89
2022/02/14 01:29:07;;;;;;;;;;;22.40;36.30;;;;;;697262;28;948;-85
2022/02/14 01:29:27;;;;;;;;;;;22.40;36.40;;;;;;697151;28;882;-94
2022/02/14 01:29:48;;;;;;;;;;;22.40;36.40;;;;;;697070;28;1320;-93
2022/02/14 01:30:09;;;;;;;;;;;22.40;36.40;;;;;;697061;28;909;-91
2022/02/14 01:30:30;;;;;;;;;;;22.40;36.40;;;;;;697010;28;881;-90
2022/02/14 01:30:51;;;;;;;;;;;22.40;36.40;;;;;;697679;28;862;-88
2022/02/14 01:31:11;;;;;;;;;;;22.40;36.40;;;;;;697929;28;867;-93
2022/02/14 01:31:32;;;;;;;;;;;22.40;36.40;;;;;;698759;28;875;-91
2022/02/14 01:31:53;;;;;;;;;;;22.40;36.40;;;;;;698155;28;937;-92
2022/02/14 01:32:14;;;;;;;;;;;22.40;36.50;;;;;;697333;28;790;-89
2022/02/14 01:32:35;;;;;;;;;;;22.40;36.40;;;;;;697090;28;874;-90
2022/02/14 01:32:58;;;;;;;;;;;22.30;36.40;;;;;;697495;28;870;-88
2022/02/14 01:33:19;;;;;;;;;;;22.40;36.50;;;;;;697327;28;819;-86
2022/02/14 01:33:39;;;;;;;;;;;22.30;36.40;;;;;;697710;28;893;-81
2022/02/14 01:34:00;;;;;;;;;;;22.30;36.50;;;;;;697222;28;874;-82
2022/02/14 01:34:20;;;;;;;;;;;22.30;36.40;;;;;;696439;28;1404;-86
2022/02/14 01:34:41;;;;;;;;;;;22.30;36.50;;;;;;697210;28;929;-91
2022/02/14 01:35:02;;;;;;;;;;;22.30;36.50;;;;;;698009;28;814;-82
2022/02/14 01:35:23;;;;;;;;;;;22.30;36.50;;;;;;697275;28;925;-80
2022/02/14 01:35:46;;;;;;;;;;;22.30;36.50;;;;;;696701;28;873;-89
2022/02/14 01:36:06;;;;;;;;;;;22.30;36.50;;;;;;697158;28;906;-82
2022/02/14 01:36:27;;;;;;;;;;;22.30;36.40;;;;;;696620;28;799;-82
2022/02/14 01:36:47;;;;;;;;;;;22.30;36.40;;;;;;696777;28;922;-84
2022/02/14 01:37:08;;;;;;;;;;;22.30;36.40;;;;;;697148;28;854;-86
2022/02/14 01:37:28;;;;;;;;;;;22.30;36.50;;;;;;697424;28;954;-91
2022/02/14 01:37:49;;;;;;;;;;;22.30;36.50;;;;;;694674;28;826;-90
2022/02/14 01:38:09;;;;;;;;;;;22.30;36.60;;;;;;694121;28;826;-81
2022/02/14 01:38:30;;;;;;;;;;;22.30;36.50;;;;;;694108;28;869;-89
2022/02/14 01:38:51;;;;;;;;;;;22.30;36.50;;;;;;694093;28;803;-89
2022/02/14 01:39:11;;;;;;;;;;;22.30;36.50;;;;;;693888;28;1281;-86
2022/02/14 01:39:32;;;;;;;;;;;22.30;36.50;;;;;;695101;28;925;-87
2022/02/14 01:39:52;;;;;;;;;;;22.30;36.50;;;;;;696510;28;874;-87
2022/02/14 01:40:13;;;;;;;;;;;22.30;36.50;;;;;;696628;28;850;-80
2022/02/14 01:40:34;;;;;;;;;;;22.30;36.50;;;;;;696680;28;839;-91
2022/02/14 01:40:54;;;;;;;;;;;22.30;36.50;;;;;;696763;28;925;-94
2022/02/14 01:41:15;;;;;;;;;;;22.30;36.50;;;;;;697004;28;882;-86
2022/02/14 01:41:35;;;;;;;;;;;22.30;36.70;;;;;;696736;28;854;-80
2022/02/14 01:41:56;;;;;;;;;;;22.30;36.50;;;;;;696711;28;894;-91
2022/02/14 01:42:17;;;;;;;;;;;22.20;36.50;;;;;;696872;28;1404;-89
2022/02/14 01:42:38;;;;;;;;;;;22.30;36.60;;;;;;696664;28;1350;-86
2022/02/14 01:42:59;;;;;;;;;;;22.30;36.60;;;;;;696715;28;862;-85
2022/02/14 01:43:19;;;;;;;;;;;22.20;36.60;;;;;;696920;28;806;-77
2022/02/14 01:43:43;;;;;;;;;;;22.20;36.60;;;;;;693744;28;1369;-85
2022/02/14 01:44:03;;;;;;;;;;;22.20;36.50;;;;;;693836;28;827;-87
2022/02/14 01:44:38;;;;;;;;;;;22.20;36.50;;;;;;693751;28;1886;-82
2022/02/14 01:44:58;;;;;;;;;;;22.20;36.60;;;;;;693862;28;850;-89
2022/02/14 01:45:19;;;;;;;;;;;22.30;36.60;;;;;;693884;28;810;-85
2022/02/14 01:45:40;;;;;;;;;;;22.20;36.50;;;;;;696618;28;878;-81
2022/02/14 01:46:00;;;;;;;;;;;22.20;36.60;;;;;;696691;28;822;-82
2022/02/14 01:46:21;;;;;;;;;;;22.20;36.60;;;;;;696669;28;818;-90
2022/02/14 01:46:41;;;;;;;;;;;22.20;36.60;;;;;;696789;28;859;-80
2022/02/14 01:47:03;;;;;;;;;;;22.20;36.60;;;;;;696311;28;1356;-84
2022/02/14 01:47:24;;;;;;;;;;;22.20;36.60;;;;;;696477;28;945;-83
2022/02/14 01:47:45;;;;;;;;;;;22.20;36.60;;;;;;696519;28;851;-82
2022/02/14 01:48:06;;;;;;;;;;;22.20;36.70;;;;;;696572;28;775;-82
2022/02/14 01:48:26;;;;;;;;;;;22.20;36.70;;;;;;693498;28;862;-82
2022/02/14 01:48:47;;;;;;;;;;;22.20;36.60;;;;;;693702;28;834;-78
2022/02/14 01:49:07;;;;;;;;;;;22.20;36.70;;;;;;693714;28;830;-80
2022/02/14 01:49:28;;;;;;;;;;;22.20;36.60;;;;;;693718;28;941;-78
2022/02/14 01:49:49;;;;;;;;;;;22.20;36.60;;;;;;694137;28;1306;-80
2022/02/14 01:50:11;;;;;;;;;;;22.20;36.70;;;;;;696410;28;914;-80
2022/02/14 01:50:32;;;;;;;;;;;22.20;36.60;;;;;;696904;28;1428;-81
2022/02/14 01:50:53;;;;;;;;;;;22.20;36.70;;;;;;699265;28;869;-80
2022/02/14 01:51:13;;;;;;;;;;;22.20;36.60;;;;;;699281;28;906;-80
2022/02/14 01:51:34;;;;;;;;;;;22.20;36.60;;;;;;699868;28;858;-83
2022/02/14 01:51:55;;;;;;;;;;;22.20;36.70;;;;;;702249;28;830;-83
2022/02/14 01:52:15;;;;;;;;;;;22.20;36.70;;;;;;702305;28;890;-85
2022/02/14 01:52:36;;;;;;;;;;;22.20;36.60;;;;;;699097;28;845;-78
2022/02/14 01:52:57;;;;;;;;;;;22.20;36.60;;;;;;699315;28;822;-80
2022/02/14 01:53:17;;;;;;;;;;;22.20;36.70;;;;;;699317;28;834;-83
2022/02/14 01:53:38;;;;;;;;;;;22.20;36.70;;;;;;699238;28;858;-79
2022/02/14 01:53:59;;;;;;;;;;;22.20;36.60;;;;;;699248;28;917;-81
2022/02/14 01:54:21;;;;;;;;;;;22.20;36.60;;;;;;696760;28;1341;-78
2022/02/14 01:54:43;;;;;;;;;;;22.20;36.70;;;;;;696510;28;968;-82
2022/02/14 01:55:04;;;;;;;;;;;22.20;36.80;;;;;;696617;28;795;-86
2022/02/14 01:55:25;;;;;;;;;;;22.20;36.70;;;;;;692716;28;1676;-79
2022/02/14 01:55:45;;;;;;;;;;;22.20;36.70;;;;;;687146;28;1447;-89
2022/02/14 01:56:06;;;;;;;;;;;22.20;36.80;;;;;;688284;28;1412;-88
2022/02/14 01:56:27;;;;;;;;;;;22.20;36.70;;;;;;689060;28;894;-85
2022/02/14 01:56:48;;;;;;;;;;;22.10;36.60;;;;;;690882;28;1250;-76
2022/02/14 01:57:09;;;;;;;;;;;22.10;36.60;;;;;;691388;28;811;-80
2022/02/14 01:57:30;;;;;;;;;;;22.20;36.70;;;;;;695283;28;1337;-83
2022/02/14 01:57:51;;;;;;;;;;;22.10;36.60;;;;;;699943;28;766;-80
2022/02/14 01:58:11;;;;;;;;;;;22.20;36.80;;;;;;702371;28;1281;-86
2022/02/14 01:58:32;;;;;;;;;;;22.10;36.60;;;;;;702270;28;873;-87
2022/02/14 01:58:53;;;;;;;;;;;22.10;36.60;;;;;;702258;28;838;-89
2022/02/14 01:59:14;;;;;;;;;;;22.20;36.70;;;;;;701430;28;1221;-91
2022/02/14 01:59:35;;;;;;;;;;;22.10;36.60;;;;;;699288;28;878;-85
2022/02/14 01:59:58;;;;;;;;;;;22.10;36.70;;;;;;699404;28;877;-83
2022/02/14 02:00:20;;;;;;;;;;;22.10;36.60;;;;;;699418;28;921;-84
2022/02/14 02:00:43;;;;;;;;;;;22.10;36.60;;;;;;697670;28;1253;-88
2022/02/14 02:01:04;;;;;;;;;;;22.10;36.60;;;;;;697077;28;909;-91
2022/02/14 02:01:24;;;;;;;;;;;22.10;36.70;;;;;;697275;28;1714;-92
2022/02/14 02:01:45;;;;;;;;;;;22.20;36.80;;;;;;697412;28;1620;-95
2022/02/14 02:02:06;;;;;;;;;;;22.20;36.80;;;;;;697799;28;1620;-96
2022/02/14 02:02:27;;;;;;;;;;;21.20;36.20;;;;;;694551;28;1509;-90
2022/02/14 02:02:47;;;;;;;;;;;22.10;36.60;;;;;;696799;28;815;-89
2022/02/14 02:03:08;;;;;;;;;;;22.20;36.70;;;;;;697288;28;787;-92
2022/02/14 02:03:28;;;;;;;;;;;22.20;36.70;;;;;;695499;28;1562;-91
2022/02/14 02:03:51;;;;;;;;;;;22.10;36.80;;;;;;691067;28;1412;-89
2022/02/14 02:04:13;;;;;;;;;;;22.00;36.70;;;;;;692489;28;1953;-77
2022/02/14 02:04:34;;;;;;;;;;;22.10;36.70;;;;;;693596;28;1323;-83
2022/02/14 02:04:55;;;;;;;;;;;22.10;36.80;;;;;;693775;28;796;-87
2022/02/14 02:05:15;;;;;;;;;;;22.10;36.80;;;;;;693895;28;806;-79
2022/02/14 02:05:36;;;;;;;;;;;22.10;36.80;;;;;;694592;28;989;-82
2022/02/14 02:05:58;;;;;;;;;;;22.10;36.80;;;;;;696724;28;842;-86
2022/02/14 02:06:18;;;;;;;;;;;22.20;36.90;;;;;;696685;28;783;-90
2022/02/14 02:06:41;;;;;;;;;;;22.10;36.80;;;;;;696619;28;819;-95